sensor_id;sensor_type;location;lat;lon;timestamp;pressure;altitude;pressure_sealevel;temperature;humidity
24154;BME280;12312;53.362;-1.518;2023-08-08T00:02:29;99059.19;;;12.88;100.00
24154;BME280;12312;53.362;-1.518;2023-08-08T00:05:13;99059.22;;;12.77;100.00
24154;BME280;12312;53.362;-1.518;2023-08-08T00:07:57;99066.91;;;12.70;100.00
24154;BME280;12312;53.362;-1.518;2023-08-08T00:10:41;99060.22;;;12.76;100.00
24154;BME280;12312;53.362;-1.518;2023-08-08T00:13:25;99068.66;;;12.81;100.00
24154;BME280;12312;53.362;-1.518;2023-08-08T00:16:09;99079.03;;;12.74;100.00
24154;BME280;12312;53.362;-1.518;2023-08-08T00:18:53;99082.03;;;12.81;100.00
24154;BME280;12312;53.362;-1.518;2023-08-08T00:21:37;99088.69;;;12.86;100.00
24154;BME280;12312;53.362;-1.518;2023-08-08T00:24:21;99099.88;;;12.80;100.00
24154;BME280;12312;53.362;-1.518;2023-08-08T00:27:05;99095.88;;;12.75;100.00
24154;BME280;12312;53.362;-1.518;2023-08-08T00:29:49;99097.59;;;12.76;100.00
24154;BME280;12312;53.362;-1.518;2023-08-08T00:32:34;99104.84;;;12.85;100.00
24154;BME280;12312;53.362;-1.518;2023-08-08T00:35:18;99095.38;;;12.81;100.00
24154;BME280;12312;53.362;-1.518;2023-08-08T00:38:02;99095.16;;;12.84;100.00
24154;BME280;12312;53.362;-1.518;2023-08-08T00:40:46;99100.72;;;12.81;100.00
24154;BME280;12312;53.362;-1.518;2023-08-08T00:43:30;99105.00;;;12.72;100.00
24154;BME280;12312;53.362;-1.518;2023-08-08T00:46:14;99107.94;;;12.69;100.00
24154;BME280;12312;53.362;-1.518;2023-08-08T00:48:58;99106.16;;;12.58;100.00
24154;BME280;12312;53.362;-1.518;2023-08-08T00:51:42;99103.00;;;12.53;100.00
24154;BME280;12312;53.362;-1.518;2023-08-08T00:54:26;99108.09;;;12.56;100.00
24154;BME280;12312;53.362;-1.518;2023-08-08T00:57:10;99104.97;;;12.51;100.00
24154;BME280;12312;53.362;-1.518;2023-08-08T00:59:53;99105.72;;;12.42;100.00
24154;BME280;12312;53.362;-1.518;2023-08-08T01:02:38;99097.25;;;12.69;100.00
24154;BME280;12312;53.362;-1.518;2023-08-08T01:05:21;99097.72;;;12.42;100.00
24154;BME280;12312;53.362;-1.518;2023-08-08T01:08:06;99090.28;;;12.46;100.00
24154;BME280;12312;53.362;-1.518;2023-08-08T01:10:50;99081.75;;;12.63;100.00
24154;BME280;12312;53.362;-1.518;2023-08-08T01:13:34;99082.75;;;12.51;100.00
24154;BME280;12312;53.362;-1.518;2023-08-08T01:16:19;99091.66;;;12.40;100.00
24154;BME280;12312;53.362;-1.518;2023-08-08T01:19:04;99090.66;;;12.41;100.00
24154;BME280;12312;53.362;-1.518;2023-08-08T01:21:48;99088.00;;;12.41;100.00
24154;BME280;12312;53.362;-1.518;2023-08-08T01:24:34;99087.56;;;12.25;100.00
24154;BME280;12312;53.362;-1.518;2023-08-08T01:27:21;99085.00;;;12.35;100.00
24154;BME280;12312;53.362;-1.518;2023-08-08T01:30:06;99078.53;;;12.48;100.00
24154;BME280;12312;53.362;-1.518;2023-08-08T01:32:50;99084.16;;;12.23;100.00
24154;BME280;12312;53.362;-1.518;2023-08-08T01:35:36;99075.75;;;12.39;100.00
24154;BME280;12312;53.362;-1.518;2023-08-08T01:38:23;99071.72;;;12.44;100.00
24154;BME280;12312;53.362;-1.518;2023-08-08T01:41:10;99064.25;;;12.27;100.00
24154;BME280;12312;53.362;-1.518;2023-08-08T01:43:54;99063.84;;;12.43;100.00
24154;BME280;12312;53.362;-1.518;2023-08-08T01:46:38;99065.63;;;12.53;100.00
24154;BME280;12312;53.362;-1.518;2023-08-08T01:49:22;99081.00;;;12.61;100.00
24154;BME280;12312;53.362;-1.518;2023-08-08T01:52:06;99073.63;;;12.53;100.00
24154;BME280;12312;53.362;-1.518;2023-08-08T01:54:50;99076.66;;;12.60;100.00
24154;BME280;12312;53.362;-1.518;2023-08-08T01:57:35;99078.03;;;12.54;100.00
24154;BME280;12312;53.362;-1.518;2023-08-08T02:00:19;99078.03;;;12.54;100.00
24154;BME280;12312;53.362;-1.518;2023-08-08T02:03:04;99079.41;;;12.70;100.00
24154;BME280;12312;53.362;-1.518;2023-08-08T02:05:48;99079.72;;;12.55;100.00
24154;BME280;12312;53.362;-1.518;2023-08-08T02:08:32;99068.94;;;12.78;100.00
24154;BME280;12312;53.362;-1.518;2023-08-08T02:11:15;99063.78;;;12.65;100.00
24154;BME280;12312;53.362;-1.518;2023-08-08T02:13:59;99053.25;;;12.84;100.00
24154;BME280;12312;53.362;-1.518;2023-08-08T02:16:43;99056.97;;;12.93;100.00
24154;BME280;12312;53.362;-1.518;2023-08-08T02:19:27;99048.50;;;12.88;100.00
24154;BME280;12312;53.362;-1.518;2023-08-08T02:22:11;99046.22;;;12.83;100.00
24154;BME280;12312;53.362;-1.518;2023-08-08T02:24:55;99055.59;;;12.98;100.00
24154;BME280;12312;53.362;-1.518;2023-08-08T02:27:39;99055.53;;;12.89;100.00
24154;BME280;12312;53.362;-1.518;2023-08-08T02:30:23;99064.69;;;13.07;100.00
24154;BME280;12312;53.362;-1.518;2023-08-08T02:33:07;99064.28;;;13.11;100.00
24154;BME280;12312;53.362;-1.518;2023-08-08T02:35:51;99061.09;;;13.17;100.00
24154;BME280;12312;53.362;-1.518;2023-08-08T02:38:35;99059.06;;;13.10;100.00
24154;BME280;12312;53.362;-1.518;2023-08-08T02:41:19;99062.75;;;13.09;100.00
24154;BME280;12312;53.362;-1.518;2023-08-08T02:44:04;99055.13;;;13.04;100.00
24154;BME280;12312;53.362;-1.518;2023-08-08T02:46:48;99050.25;;;12.98;100.00
24154;BME280;12312;53.362;-1.518;2023-08-08T02:49:32;99057.28;;;12.99;100.00
24154;BME280;12312;53.362;-1.518;2023-08-08T02:52:17;99047.25;;;12.92;100.00
24154;BME280;12312;53.362;-1.518;2023-08-08T02:55:00;99047.97;;;12.94;100.00
24154;BME280;12312;53.362;-1.518;2023-08-08T02:57:46;99041.22;;;12.90;100.00
24154;BME280;12312;53.362;-1.518;2023-08-08T03:00:30;99047.78;;;12.86;100.00
24154;BME280;12312;53.362;-1.518;2023-08-08T03:03:14;99046.56;;;12.90;100.00
24154;BME280;12312;53.362;-1.518;2023-08-08T03:05:57;99043.38;;;12.96;100.00
24154;BME280;12312;53.362;-1.518;2023-08-08T03:08:41;99037.28;;;12.94;100.00
24154;BME280;12312;53.362;-1.518;2023-08-08T03:11:25;99032.47;;;12.88;100.00
24154;BME280;12312;53.362;-1.518;2023-08-08T03:14:09;99038.22;;;13.04;100.00
24154;BME280;12312;53.362;-1.518;2023-08-08T03:16:53;99037.03;;;12.97;100.00
24154;BME280;12312;53.362;-1.518;2023-08-08T03:19:37;99033.94;;;12.81;100.00
24154;BME280;12312;53.362;-1.518;2023-08-08T03:22:21;99025.84;;;13.03;100.00
24154;BME280;12312;53.362;-1.518;2023-08-08T03:25:05;99023.94;;;12.94;100.00
24154;BME280;12312;53.362;-1.518;2023-08-08T03:27:49;99027.66;;;12.82;100.00
24154;BME280;12312;53.362;-1.518;2023-08-08T03:30:35;99027.91;;;12.79;100.00
24154;BME280;12312;53.362;-1.518;2023-08-08T03:33:19;99026.47;;;12.75;100.00
24154;BME280;12312;53.362;-1.518;2023-08-08T03:36:03;99023.13;;;12.82;100.00
24154;BME280;12312;53.362;-1.518;2023-08-08T03:38:47;99023.72;;;12.86;100.00
24154;BME280;12312;53.362;-1.518;2023-08-08T03:41:31;99018.13;;;12.89;100.00
24154;BME280;12312;53.362;-1.518;2023-08-08T03:44:15;99023.72;;;12.65;100.00
24154;BME280;12312;53.362;-1.518;2023-08-08T03:46:59;99028.69;;;12.70;100.00
24154;BME280;12312;53.362;-1.518;2023-08-08T03:49:43;99029.59;;;12.80;100.00
24154;BME280;12312;53.362;-1.518;2023-08-08T03:52:27;99024.50;;;12.77;100.00
24154;BME280;12312;53.362;-1.518;2023-08-08T03:55:11;99027.91;;;12.79;100.00
24154;BME280;12312;53.362;-1.518;2023-08-08T03:57:55;99028.16;;;12.76;100.00
24154;BME280;12312;53.362;-1.518;2023-08-08T04:00:39;99020.25;;;12.85;100.00
24154;BME280;12312;53.362;-1.518;2023-08-08T04:03:29;99016.44;;;12.88;100.00
24154;BME280;12312;53.362;-1.518;2023-08-08T04:06:13;99013.25;;;12.94;100.00
24154;BME280;12312;53.362;-1.518;2023-08-08T04:08:57;99016.03;;;12.72;100.00
24154;BME280;12312;53.362;-1.518;2023-08-08T04:11:41;99008.75;;;12.74;100.00
24154;BME280;12312;53.362;-1.518;2023-08-08T04:14:25;98997.41;;;12.81;100.00
24154;BME280;12312;53.362;-1.518;2023-08-08T04:17:09;99002.38;;;12.86;100.00
24154;BME280;12312;53.362;-1.518;2023-08-08T04:19:53;99005.25;;;12.94;100.00
24154;BME280;12312;53.362;-1.518;2023-08-08T04:22:37;99013.09;;;12.75;100.00
24154;BME280;12312;53.362;-1.518;2023-08-08T04:25:21;99020.84;;;12.78;100.00
24154;BME280;12312;53.362;-1.518;2023-08-08T04:28:05;99026.31;;;12.55;100.00
24154;BME280;12312;53.362;-1.518;2023-08-08T04:30:49;99014.25;;;12.93;100.00
24154;BME280;12312;53.362;-1.518;2023-08-08T04:33:33;99022.56;;;12.79;100.00
24154;BME280;12312;53.362;-1.518;2023-08-08T04:36:17;99016.81;;;12.63;100.00
24154;BME280;12312;53.362;-1.518;2023-08-08T04:39:01;99011.63;;;12.82;100.00
24154;BME280;12312;53.362;-1.518;2023-08-08T04:41:45;99014.75;;;12.87;100.00
24154;BME280;12312;53.362;-1.518;2023-08-08T04:44:29;99011.38;;;12.85;100.00
24154;BME280;12312;53.362;-1.518;2023-08-08T04:47:13;99009.78;;;12.62;100.00
24154;BME280;12312;53.362;-1.518;2023-08-08T04:49:57;99004.00;;;12.77;100.00
24154;BME280;12312;53.362;-1.518;2023-08-08T04:52:41;99005.81;;;12.77;100.00
24154;BME280;12312;53.362;-1.518;2023-08-08T04:55:25;99001.72;;;12.73;100.00
24154;BME280;12312;53.362;-1.518;2023-08-08T04:58:09;99013.19;;;12.64;100.00
24154;BME280;12312;53.362;-1.518;2023-08-08T05:00:53;99016.53;;;12.97;100.00
24154;BME280;12312;53.362;-1.518;2023-08-08T05:03:38;99015.91;;;13.05;100.00
24154;BME280;12312;53.362;-1.518;2023-08-08T05:06:22;99008.97;;;13.02;100.00
24154;BME280;12312;53.362;-1.518;2023-08-08T05:09:06;99015.94;;;12.94;100.00
24154;BME280;12312;53.362;-1.518;2023-08-08T05:11:53;99012.50;;;13.03;100.00
24154;BME280;12312;53.362;-1.518;2023-08-08T05:14:37;99025.72;;;12.84;100.00
24154;BME280;12312;53.362;-1.518;2023-08-08T05:17:21;99020.38;;;12.84;100.00
24154;BME280;12312;53.362;-1.518;2023-08-08T05:20:05;99018.13;;;12.89;100.00
24154;BME280;12312;53.362;-1.518;2023-08-08T05:22:49;99016.84;;;13.04;100.00
24154;BME280;12312;53.362;-1.518;2023-08-08T05:25:33;99009.81;;;13.03;100.00
24154;BME280;12312;53.362;-1.518;2023-08-08T05:28:17;99010.44;;;12.95;100.00
24154;BME280;12312;53.362;-1.518;2023-08-08T05:31:01;99004.00;;;12.77;100.00
24154;BME280;12312;53.362;-1.518;2023-08-08T05:33:45;98995.94;;;12.88;100.00
24154;BME280;12312;53.362;-1.518;2023-08-08T05:36:29;98989.44;;;13.02;100.00
24154;BME280;12312;53.362;-1.518;2023-08-08T05:39:13;98995.00;;;13.40;100.00
24154;BME280;12312;53.362;-1.518;2023-08-08T05:41:57;98987.34;;;13.05;100.00
24154;BME280;12312;53.362;-1.518;2023-08-08T05:44:41;98999.00;;;13.04;100.00
24154;BME280;12312;53.362;-1.518;2023-08-08T05:47:25;99013.50;;;13.02;100.00
24154;BME280;12312;53.362;-1.518;2023-08-08T05:50:09;99006.28;;;12.82;100.00
24154;BME280;12312;53.362;-1.518;2023-08-08T05:52:53;99002.13;;;13.09;100.00
24154;BME280;12312;53.362;-1.518;2023-08-08T05:55:37;99000.16;;;13.11;100.00
24154;BME280;12312;53.362;-1.518;2023-08-08T05:58:24;98995.75;;;13.01;100.00
24154;BME280;12312;53.362;-1.518;2023-08-08T06:01:08;98997.34;;;13.13;100.00
24154;BME280;12312;53.362;-1.518;2023-08-08T06:03:55;98998.41;;;13.21;100.00
24154;BME280;12312;53.362;-1.518;2023-08-08T06:06:39;99001.56;;;13.36;100.00
24154;BME280;12312;53.362;-1.518;2023-08-08T06:09:24;99003.53;;;13.64;100.00
24154;BME280;12312;53.362;-1.518;2023-08-08T06:12:08;99010.28;;;13.68;100.00
24154;BME280;12312;53.362;-1.518;2023-08-08T06:14:52;99006.69;;;13.88;100.00
24154;BME280;12312;53.362;-1.518;2023-08-08T06:17:36;99003.47;;;13.94;100.00
24154;BME280;12312;53.362;-1.518;2023-08-08T06:20:20;98995.06;;;14.08;100.00
24154;BME280;12312;53.362;-1.518;2023-08-08T06:23:04;98989.41;;;14.11;100.00
24154;BME280;12312;53.362;-1.518;2023-08-08T06:25:48;98993.34;;;14.07;100.00
24154;BME280;12312;53.362;-1.518;2023-08-08T06:28:32;99000.13;;;14.20;100.00
24154;BME280;12312;53.362;-1.518;2023-08-08T06:31:16;98997.84;;;14.16;100.00
24154;BME280;12312;53.362;-1.518;2023-08-08T06:34:00;98993.06;;;14.10;100.00
24154;BME280;12312;53.362;-1.518;2023-08-08T06:36:44;99001.53;;;14.15;100.00
24154;BME280;12312;53.362;-1.518;2023-08-08T06:39:30;99001.25;;;14.18;100.00
24154;BME280;12312;53.362;-1.518;2023-08-08T06:42:15;98998.97;;;14.04;100.00
24154;BME280;12312;53.362;-1.518;2023-08-08T06:44:59;99000.47;;;14.37;100.00
24154;BME280;12312;53.362;-1.518;2023-08-08T06:47:43;99001.53;;;14.15;100.00
24154;BME280;12312;53.362;-1.518;2023-08-08T06:50:27;99000.75;;;14.43;100.00
24154;BME280;12312;53.362;-1.518;2023-08-08T06:53:11;99007.91;;;14.33;100.00
24154;BME280;12312;53.362;-1.518;2023-08-08T06:55:54;99005.56;;;14.49;100.00
24154;BME280;12312;53.362;-1.518;2023-08-08T06:58:38;98996.50;;;14.41;100.00
24154;BME280;12312;53.362;-1.518;2023-08-08T07:01:22;98996.19;;;14.15;100.00
24154;BME280;12312;53.362;-1.518;2023-08-08T07:04:06;99005.53;;;14.30;100.00
24154;BME280;12312;53.362;-1.518;2023-08-08T07:06:50;98999.28;;;14.20;100.00
24154;BME280;12312;53.362;-1.518;2023-08-08T07:09:34;98998.75;;;14.45;100.00
24154;BME280;12312;53.362;-1.518;2023-08-08T07:12:18;99007.13;;;13.93;100.00
24154;BME280;12312;53.362;-1.518;2023-08-08T07:15:02;99008.84;;;14.13;100.00
24154;BME280;12312;53.362;-1.518;2023-08-08T07:17:46;99009.94;;;14.01;100.00
24154;BME280;12312;53.362;-1.518;2023-08-08T07:20:30;99011.44;;;14.34;100.00
24154;BME280;12312;53.362;-1.518;2023-08-08T07:23:14;99002.72;;;14.41;100.00
24154;BME280;12312;53.362;-1.518;2023-08-08T07:25:58;99001.59;;;14.44;100.00
24154;BME280;12312;53.362;-1.518;2023-08-08T07:28:42;98991.16;;;14.50;100.00
24154;BME280;12312;53.362;-1.518;2023-08-08T07:31:26;99002.13;;;14.66;100.00
24154;BME280;12312;53.362;-1.518;2023-08-08T07:34:10;99001.44;;;14.74;100.00
24154;BME280;12312;53.362;-1.518;2023-08-08T07:36:54;99006.78;;;14.45;100.00
24154;BME280;12312;53.362;-1.518;2023-08-08T07:39:38;99006.94;;;14.44;100.00
24154;BME280;12312;53.362;-1.518;2023-08-08T07:42:22;98996.09;;;14.55;100.00
24154;BME280;12312;53.362;-1.518;2023-08-08T07:45:06;98995.94;;;14.47;100.00
24154;BME280;12312;53.362;-1.518;2023-08-08T07:47:50;98988.50;;;14.60;100.00
24154;BME280;12312;53.362;-1.518;2023-08-08T07:50:34;98998.22;;;14.70;100.00
24154;BME280;12312;53.362;-1.518;2023-08-08T07:53:18;99011.50;;;15.27;100.00
24154;BME280;12312;53.362;-1.518;2023-08-08T07:56:02;98996.00;;;15.12;100.00
24154;BME280;12312;53.362;-1.518;2023-08-08T07:58:46;99001.44;;;14.74;100.00
24154;BME280;12312;53.362;-1.518;2023-08-08T08:01:30;98993.38;;;14.93;100.00
24154;BME280;12312;53.362;-1.518;2023-08-08T08:04:14;98990.84;;;14.72;100.00
24154;BME280;12312;53.362;-1.518;2023-08-08T08:06:58;99003.56;;;14.61;100.00
24154;BME280;12312;53.362;-1.518;2023-08-08T08:09:42;98993.41;;;14.74;100.00
24154;BME280;12312;53.362;-1.518;2023-08-08T08:12:26;98997.31;;;14.98;100.00
24154;BME280;12312;53.362;-1.518;2023-08-08T08:15:10;98986.28;;;15.20;100.00
24154;BME280;12312;53.362;-1.518;2023-08-08T08:17:54;98984.75;;;15.08;100.00
24154;BME280;12312;53.362;-1.518;2023-08-08T08:20:38;98988.66;;;15.23;100.00
24154;BME280;12312;53.362;-1.518;2023-08-08T08:23:23;98978.03;;;15.31;100.00
24154;BME280;12312;53.362;-1.518;2023-08-08T08:26:06;98986.28;;;15.20;100.00
24154;BME280;12312;53.362;-1.518;2023-08-08T08:28:50;98982.38;;;14.96;100.00
24154;BME280;12312;53.362;-1.518;2023-08-08T08:31:34;98989.16;;;14.90;100.00
24154;BME280;12312;53.362;-1.518;2023-08-08T08:34:20;98989.31;;;15.35;100.00
24154;BME280;12312;53.362;-1.518;2023-08-08T08:37:04;98984.25;;;15.22;100.00
24154;BME280;12312;53.362;-1.518;2023-08-08T08:39:48;98989.69;;;15.03;100.00
24154;BME280;12312;53.362;-1.518;2023-08-08T08:42:32;98974.66;;;15.29;100.00
24154;BME280;12312;53.362;-1.518;2023-08-08T08:45:16;98973.94;;;15.46;100.00
24154;BME280;12312;53.362;-1.518;2023-08-08T08:48:03;98974.97;;;15.90;100.00
24154;BME280;12312;53.362;-1.518;2023-08-08T08:50:49;98962.66;;;15.70;100.00
24154;BME280;12312;53.362;-1.518;2023-08-08T08:53:33;98970.72;;;15.87;100.00
24154;BME280;12312;53.362;-1.518;2023-08-08T08:56:18;98963.22;;;15.91;100.00
24154;BME280;12312;53.362;-1.518;2023-08-08T08:59:03;98962.78;;;15.95;100.00
24154;BME280;12312;53.362;-1.518;2023-08-08T09:01:47;98967.47;;;15.93;100.00
24154;BME280;12312;53.362;-1.518;2023-08-08T09:04:33;98970.25;;;15.74;100.00
24154;BME280;12312;53.362;-1.518;2023-08-08T09:07:18;98966.19;;;15.43;100.00
24154;BME280;12312;53.362;-1.518;2023-08-08T09:10:04;98961.00;;;15.59;100.00
24154;BME280;12312;53.362;-1.518;2023-08-08T09:12:47;98960.31;;;15.57;100.00
24154;BME280;12312;53.362;-1.518;2023-08-08T09:15:33;98955.22;;;15.81;100.00
24154;BME280;12312;53.362;-1.518;2023-08-08T09:18:17;98951.88;;;15.79;100.00
24154;BME280;12312;53.362;-1.518;2023-08-08T09:21:01;98953.31;;;16.19;100.00
24154;BME280;12312;53.362;-1.518;2023-08-08T09:23:45;98939.88;;;16.01;100.00
24154;BME280;12312;53.362;-1.518;2023-08-08T09:26:29;98951.75;;;16.34;100.00
24154;BME280;12312;53.362;-1.518;2023-08-08T09:29:14;98937.94;;;16.29;100.00
24154;BME280;12312;53.362;-1.518;2023-08-08T09:31:58;98938.56;;;16.58;100.00
24154;BME280;12312;53.362;-1.518;2023-08-08T09:34:42;98937.31;;;16.70;100.00
24154;BME280;12312;53.362;-1.518;2023-08-08T09:37:27;98941.13;;;16.85;100.00
24154;BME280;12312;53.362;-1.518;2023-08-08T09:40:11;98935.72;;;16.77;100.00
24154;BME280;12312;53.362;-1.518;2023-08-08T09:42:56;98933.34;;;16.74;100.00
24154;BME280;12312;53.362;-1.518;2023-08-08T09:45:40;98933.13;;;16.67;100.00
24154;BME280;12312;53.362;-1.518;2023-08-08T09:48:32;98937.31;;;16.70;100.00
24154;BME280;12312;53.362;-1.518;2023-08-08T09:51:16;98941.50;;;17.15;100.00
24154;BME280;12312;53.362;-1.518;2023-08-08T09:54:00;98945.31;;;17.05;100.00
24154;BME280;12312;53.362;-1.518;2023-08-08T09:56:44;98935.56;;;17.04;100.00
24154;BME280;12312;53.362;-1.518;2023-08-08T09:59:28;98935.34;;;17.23;100.00
24154;BME280;12312;53.362;-1.518;2023-08-08T10:02:13;98932.94;;;17.12;100.00
24154;BME280;12312;53.362;-1.518;2023-08-08T10:04:58;98930.75;;;16.90;100.00
24154;BME280;12312;53.362;-1.518;2023-08-08T10:07:43;98926.81;;;17.02;100.00
24154;BME280;12312;53.362;-1.518;2023-08-08T10:10:27;98930.44;;;16.93;100.00
24154;BME280;12312;53.362;-1.518;2023-08-08T10:13:22;98938.34;;;16.69;100.00
24154;BME280;12312;53.362;-1.518;2023-08-08T10:16:09;98940.09;;;16.78;100.00
24154;BME280;12312;53.362;-1.518;2023-08-08T10:18:57;98942.94;;;16.76;100.00
24154;BME280;12312;53.362;-1.518;2023-08-08T10:21:43;98942.28;;;16.57;100.00
24154;BME280;12312;53.362;-1.518;2023-08-08T10:24:35;98943.31;;;16.64;100.00
24154;BME280;12312;53.362;-1.518;2023-08-08T10:27:35;98953.88;;;16.57;100.00
24154;BME280;12312;53.362;-1.518;2023-08-08T10:30:20;98950.72;;;16.62;100.00
24154;BME280;12312;53.362;-1.518;2023-08-08T10:33:04;98965.28;;;16.77;100.00
24154;BME280;12312;53.362;-1.518;2023-08-08T10:35:54;98956.41;;;16.59;100.00
24154;BME280;12312;53.362;-1.518;2023-08-08T10:41:25;98956.28;;;16.33;100.00
24154;BME280;12312;53.362;-1.518;2023-08-08T10:44:10;98950.09;;;16.33;100.00
24154;BME280;12312;53.362;-1.518;2023-08-08T10:46:54;98944.25;;;16.55;100.00
24154;BME280;12312;53.362;-1.518;2023-08-08T10:49:38;98937.31;;;16.35;100.00
24154;BME280;12312;53.362;-1.518;2023-08-08T10:52:25;98933.75;;;16.61;100.00
24154;BME280;12312;53.362;-1.518;2023-08-08T10:55:17;98930.38;;;16.85;100.00
24154;BME280;12312;53.362;-1.518;2023-08-08T10:58:09;98935.53;;;17.29;100.00
24154;BME280;12312;53.362;-1.518;2023-08-08T11:00:53;98932.09;;;16.86;100.00
24154;BME280;12312;53.362;-1.518;2023-08-08T11:03:38;98926.63;;;16.95;100.00
24154;BME280;12312;53.362;-1.518;2023-08-08T11:06:22;98927.75;;;16.93;100.00
24154;BME280;12312;53.362;-1.518;2023-08-08T11:09:07;98920.97;;;17.40;100.00
24154;BME280;12312;53.362;-1.518;2023-08-08T11:11:51;98917.13;;;17.09;100.00
24154;BME280;12312;53.362;-1.518;2023-08-08T11:14:35;98915.78;;;17.80;100.00
24154;BME280;12312;53.362;-1.518;2023-08-08T11:17:19;98919.47;;;17.71;100.00
24154;BME280;12312;53.362;-1.518;2023-08-08T11:20:03;98906.13;;;18.27;100.00
24154;BME280;12312;53.362;-1.518;2023-08-08T11:22:54;98905.47;;;18.49;100.00
24154;BME280;12312;53.362;-1.518;2023-08-08T11:25:42;98909.81;;;18.26;100.00
24154;BME280;12312;53.362;-1.518;2023-08-08T11:28:26;98914.50;;;18.00;100.00
24154;BME280;12312;53.362;-1.518;2023-08-08T11:31:10;98923.56;;;17.99;100.00
24154;BME280;12312;53.362;-1.518;2023-08-08T11:33:55;98909.94;;;18.01;100.00
24154;BME280;12312;53.362;-1.518;2023-08-08T11:36:39;98912.19;;;18.21;100.00
24154;BME280;12312;53.362;-1.518;2023-08-08T11:39:23;98900.00;;;19.13;100.00
24154;BME280;12312;53.362;-1.518;2023-08-08T11:42:07;98907.75;;;19.08;100.00
24154;BME280;12312;53.362;-1.518;2023-08-08T11:44:51;98911.81;;;19.98;100.00
24154;BME280;12312;53.362;-1.518;2023-08-08T11:47:35;98909.25;;;19.74;100.00
24154;BME280;12312;53.362;-1.518;2023-08-08T11:50:20;98894.16;;;19.87;100.00
24154;BME280;12312;53.362;-1.518;2023-08-08T11:53:06;98885.16;;;19.95;100.00
24154;BME280;12312;53.362;-1.518;2023-08-08T11:55:51;98877.28;;;20.61;96.18
24154;BME280;12312;53.362;-1.518;2023-08-08T11:58:35;98888.91;;;21.71;94.07
24154;BME280;12312;53.362;-1.518;2023-08-08T12:01:20;98887.00;;;21.80;90.23
24154;BME280;12312;53.362;-1.518;2023-08-08T12:04:07;98886.72;;;21.46;88.76
24154;BME280;12312;53.362;-1.518;2023-08-08T12:06:57;98881.13;;;21.47;89.88
24154;BME280;12312;53.362;-1.518;2023-08-08T12:09:46;98875.44;;;21.13;93.54
24154;BME280;12312;53.362;-1.518;2023-08-08T12:12:31;98869.38;;;21.40;90.88
24154;BME280;12312;53.362;-1.518;2023-08-08T12:15:17;98875.22;;;22.08;87.42
24154;BME280;12312;53.362;-1.518;2023-08-08T12:18:01;98868.44;;;23.10;83.92
24154;BME280;12312;53.362;-1.518;2023-08-08T12:20:46;98867.66;;;22.88;78.60
24154;BME280;12312;53.362;-1.518;2023-08-08T12:23:29;98860.94;;;23.46;75.54
24154;BME280;12312;53.362;-1.518;2023-08-08T12:26:13;98871.94;;;23.72;72.23
24154;BME280;12312;53.362;-1.518;2023-08-08T12:28:57;98866.66;;;21.26;77.39
24154;BME280;12312;53.362;-1.518;2023-08-08T12:31:41;98869.38;;;21.40;80.68
24154;BME280;12312;53.362;-1.518;2023-08-08T12:34:25;98863.81;;;21.48;84.52
24154;BME280;12312;53.362;-1.518;2023-08-08T12:37:09;98864.34;;;22.93;79.73
24154;BME280;12312;53.362;-1.518;2023-08-08T12:39:53;98867.47;;;21.84;82.42
24154;BME280;12312;53.362;-1.518;2023-08-08T12:42:38;98869.59;;;20.87;89.32
24154;BME280;12312;53.362;-1.518;2023-08-08T12:45:22;98862.06;;;22.26;87.79
24154;BME280;12312;53.362;-1.518;2023-08-08T12:48:06;98867.56;;;22.33;85.04
24154;BME280;12312;53.362;-1.518;2023-08-08T12:50:50;98876.38;;;21.05;89.27
24154;BME280;12312;53.362;-1.518;2023-08-08T12:53:34;98872.53;;;21.00;89.28
24154;BME280;12312;53.362;-1.518;2023-08-08T12:56:17;98875.69;;;20.29;93.75
24154;BME280;12312;53.362;-1.518;2023-08-08T12:59:01;98871.53;;;20.19;93.76
24154;BME280;12312;53.362;-1.518;2023-08-08T13:01:46;98856.81;;;20.44;94.52
24154;BME280;12312;53.362;-1.518;2023-08-08T13:04:31;98867.44;;;20.23;98.21
24154;BME280;12312;53.362;-1.518;2023-08-08T13:07:15;98862.84;;;20.68;96.71
24154;BME280;12312;53.362;-1.518;2023-08-08T13:09:59;98862.56;;;21.30;93.07
24154;BME280;12312;53.362;-1.518;2023-08-08T13:12:43;98858.00;;;22.58;81.23
24154;BME280;12312;53.362;-1.518;2023-08-08T13:15:27;98852.59;;;23.13;78.20
24154;BME280;12312;53.362;-1.518;2023-08-08T13:18:11;98857.91;;;23.28;77.85
24154;BME280;12312;53.362;-1.518;2023-08-08T13:20:55;98869.94;;;22.21;81.19
24154;BME280;12312;53.362;-1.518;2023-08-08T13:23:40;98853.50;;;21.73;85.97
24154;BME280;12312;53.362;-1.518;2023-08-08T13:26:24;98852.63;;;23.20;77.57
24154;BME280;12312;53.362;-1.518;2023-08-08T13:29:09;98857.78;;;21.46;87.50
24154;BME280;12312;53.362;-1.518;2023-08-08T13:31:53;98853.50;;;21.08;91.69
24154;BME280;12312;53.362;-1.518;2023-08-08T13:34:37;98855.63;;;20.61;92.43
24154;BME280;12312;53.362;-1.518;2023-08-08T13:37:21;98864.69;;;21.05;94.00
24154;BME280;12312;53.362;-1.518;2023-08-08T13:40:05;98860.13;;;20.01;94.95
24154;BME280;12312;53.362;-1.518;2023-08-08T13:42:49;98866.41;;;19.24;96.69
24154;BME280;12312;53.362;-1.518;2023-08-08T13:45:34;98861.88;;;19.24;99.48
24154;BME280;12312;53.362;-1.518;2023-08-08T13:48:18;98857.31;;;18.62;100.00
24154;BME280;12312;53.362;-1.518;2023-08-08T13:51:02;98874.25;;;18.87;100.00
24154;BME280;12312;53.362;-1.518;2023-08-08T13:53:49;98872.78;;;18.52;100.00
24154;BME280;12312;53.362;-1.518;2023-08-08T13:56:33;98860.81;;;18.71;100.00
24154;BME280;12312;53.362;-1.518;2023-08-08T13:59:17;98855.50;;;19.09;100.00
24154;BME280;12312;53.362;-1.518;2023-08-08T14:02:01;98857.00;;;19.59;95.70
24154;BME280;12312;53.362;-1.518;2023-08-08T14:04:45;98847.06;;;19.12;93.94
24154;BME280;12312;53.362;-1.518;2023-08-08T14:07:29;98846.41;;;19.49;95.23
24154;BME280;12312;53.362;-1.518;2023-08-08T14:10:13;98833.06;;;19.56;97.59
24154;BME280;12312;53.362;-1.518;2023-08-08T14:12:57;98838.38;;;19.41;96.24